Time;durP1;ratioP1;P1;durP2;ratioP2;P2;SDS_P1;SDS_P2;PMS_P1;PMS_P2;Temp;Humidity;BMP_temperature;BMP_pressure;BME280_temperature;BME280_humidity;BME280_pressure;Samples;Min_cycle;Max_cycle;Signal;HPM_P1;HPM_P2
2022/07/02 00:00:56;;;;;;;10.05;5.95;;;;;;;;;;5105173;27;20050;-64
2022/07/02 00:03:44;;;;;;;9.35;5.97;;;;;;;;;;5102783;27;20078;-64
2022/07/02 00:06:13;;;;;;;10.60;5.10;;;;;;;;;;5070528;28;20040;-65
2022/07/02 00:08:43;;;;;;;10.52;5.25;;;;;;;;;;5068341;28;20082;-64
2022/07/02 00:11:14;;;;;;;8.23;4.70;;;;;;;;;;5080539;27;20043;-64
2022/07/02 00:13:41;;;;;;;9.25;5.07;;;;;;;;;;5103911;27;20043;-65
2022/07/02 00:16:11;;;;;;;9.80;5.18;;;;;;;;;;5097648;27;20588;-65
2022/07/02 00:18:38;;;;;;;7.88;4.45;;;;;;;;;;5092636;27;20039;-65
2022/07/02 00:21:05;;;;;;;7.00;3.92;;;;;;;;;;5097235;27;20047;-65
2022/07/02 00:23:31;;;;;;;8.85;4.60;;;;;;;;;;5102970;27;20055;-65
2022/07/02 00:25:59;;;;;;;7.97;3.95;;;;;;;;;;5103978;27;20059;-64
2022/07/02 00:28:25;;;;;;;8.50;4.55;;;;;;;;;;5103053;27;20391;-65
2022/07/02 00:30:52;;;;;;;7.90;4.68;;;;;;;;;;5103789;27;20152;-64
2022/07/02 00:33:19;;;;;;;7.63;4.60;;;;;;;;;;5101367;27;20441;-63
2022/07/02 00:35:46;;;;;;;7.63;4.75;;;;;;;;;;5102854;27;20036;-67
2022/07/02 00:38:13;;;;;;;7.75;3.92;;;;;;;;;;5103642;27;20032;-66
2022/07/02 00:40:41;;;;;;;6.97;4.00;;;;;;;;;;5103691;27;20479;-66
2022/07/02 00:43:07;;;;;;;7.40;4.28;;;;;;;;;;5102835;27;20047;-66
2022/07/02 00:45:35;;;;;;;7.07;3.88;;;;;;;;;;5102169;27;20092;-66
2022/07/02 00:48:02;;;;;;;7.82;4.90;;;;;;;;;;5104517;27;20035;-66
2022/07/02 00:50:29;;;;;;;7.40;4.22;;;;;;;;;;5084085;28;20688;-66
2022/07/02 00:52:56;;;;;;;9.48;4.97;;;;;;;;;;5103520;27;20036;-65
2022/07/02 00:55:23;;;;;;;7.22;4.25;;;;;;;;;;5102689;27;20084;-65
2022/07/02 00:57:49;;;;;;;9.45;4.90;;;;;;;;;;5101976;27;20136;-66
2022/07/02 01:00:17;;;;;;;9.93;5.05;;;;;;;;;;5103703;27;20039;-62
2022/07/02 01:02:45;;;;;;;8.45;4.55;;;;;;;;;;5102239;27;20035;-67
2022/07/02 01:05:15;;;;;;;10.07;5.40;;;;;;;;;;5102511;27;20036;-66
2022/07/02 01:07:46;;;;;;;8.10;4.68;;;;;;;;;;5102406;27;21635;-68
2022/07/02 01:10:17;;;;;;;7.80;4.43;;;;;;;;;;5102775;27;20107;-67
2022/07/02 01:12:48;;;;;;;8.13;4.72;;;;;;;;;;5102283;27;20078;-67
2022/07/02 01:15:15;;;;;;;8.18;4.43;;;;;;;;;;5103755;27;20047;-67
2022/07/02 01:17:42;;;;;;;7.68;4.78;;;;;;;;;;5082890;27;20530;-69
2022/07/02 01:20:09;;;;;;;8.48;4.88;;;;;;;;;;5103829;27;20040;-67
2022/07/02 01:22:37;;;;;;;8.70;4.90;;;;;;;;;;5099750;27;20092;-66
2022/07/02 01:25:04;;;;;;;9.13;5.25;;;;;;;;;;5101049;27;20127;-66
2022/07/02 01:27:31;;;;;;;8.02;5.18;;;;;;;;;;5099394;27;20044;-65
2022/07/02 01:29:58;;;;;;;7.88;4.60;;;;;;;;;;5100770;27;20048;-66
2022/07/02 01:32:25;;;;;;;9.35;4.85;;;;;;;;;;5099135;27;20032;-67
2022/07/02 01:34:53;;;;;;;8.43;4.22;;;;;;;;;;5100659;27;20769;-69
2022/07/02 01:37:21;;;;;;;8.20;4.13;;;;;;;;;;5101929;27;20046;-66
2022/07/02 01:39:48;;;;;;;6.88;3.70;;;;;;;;;;5102706;27;20382;-67
2022/07/02 01:42:15;;;;;;;8.57;3.95;;;;;;;;;;5102964;28;20040;-68
2022/07/02 01:44:42;;;;;;;7.95;4.13;;;;;;;;;;5105260;27;20048;-67
2022/07/02 01:47:10;;;;;;;6.63;3.47;;;;;;;;;;5109269;27;20047;-69
2022/07/02 01:49:37;;;;;;;6.93;3.38;;;;;;;;;;5108768;27;20499;-67
2022/07/02 01:52:04;;;;;;;9.30;3.47;;;;;;;;;;5108895;27;20183;-66
2022/07/02 01:54:31;;;;;;;7.80;4.00;;;;;;;;;;5107802;27;20095;-67
2022/07/02 01:56:58;;;;;;;6.95;3.60;;;;;;;;;;5108667;27;20499;-68
2022/07/02 01:59:25;;;;;;;6.43;2.90;;;;;;;;;;5110742;27;20514;-68
2022/07/02 02:01:52;;;;;;;5.40;2.85;;;;;;;;;;5109064;27;20174;-64
2022/07/02 02:04:18;;;;;;;6.43;3.08;;;;;;;;;;5107988;27;20054;-64
2022/07/02 02:06:45;;;;;;;6.28;2.92;;;;;;;;;;5107287;27;20051;-66
2022/07/02 02:09:12;;;;;;;7.03;3.03;;;;;;;;;;5106276;27;20035;-67
2022/07/02 02:11:38;;;;;;;6.43;2.70;;;;;;;;;;5107501;27;20050;-67
2022/07/02 02:14:05;;;;;;;7.13;3.30;;;;;;;;;;5106367;27;20116;-67
2022/07/02 02:16:32;;;;;;;5.43;2.72;;;;;;;;;;5106165;27;20066;-67
2022/07/02 02:18:59;;;;;;;5.30;2.78;;;;;;;;;;5111074;27;20032;-66
2022/07/02 02:21:27;;;;;;;4.97;2.58;;;;;;;;;;5108480;27;20042;-66
2022/07/02 02:23:54;;;;;;;6.80;3.13;;;;;;;;;;5107922;27;20044;-67
2022/07/02 02:26:21;;;;;;;6.43;3.10;;;;;;;;;;5110771;27;20484;-66
2022/07/02 02:28:48;;;;;;;6.88;3.20;;;;;;;;;;5108883;27;20096;-67
2022/07/02 02:31:14;;;;;;;6.68;3.38;;;;;;;;;;5110423;27;20066;-67
2022/07/02 02:33:41;;;;;;;6.20;2.90;;;;;;;;;;5107549;27;20131;-66
2022/07/02 02:36:08;;;;;;;8.20;3.47;;;;;;;;;;5108841;27;20372;-68
2022/07/02 02:38:37;;;;;;;7.15;2.92;;;;;;;;;;5107954;27;20118;-67
2022/07/02 02:41:07;;;;;;;5.57;3.05;;;;;;;;;;5108824;27;20035;-67
2022/07/02 02:43:35;;;;;;;4.90;2.70;;;;;;;;;;5106149;27;20051;-67
2022/07/02 02:46:02;;;;;;;5.53;2.80;;;;;;;;;;5109654;27;20515;-67
2022/07/02 02:48:28;;;;;;;5.43;2.97;;;;;;;;;;5108562;27;20160;-67
2022/07/02 02:50:56;;;;;;;6.97;3.22;;;;;;;;;;5108144;27;20043;-68
2022/07/02 02:53:22;;;;;;;6.45;2.85;;;;;;;;;;5107475;27;20135;-66
2022/07/02 02:55:49;;;;;;;5.80;3.05;;;;;;;;;;5107419;27;20051;-64
2022/07/02 02:58:16;;;;;;;8.45;2.95;;;;;;;;;;5104523;27;20109;-65
2022/07/02 03:00:42;;;;;;;7.43;3.45;;;;;;;;;;5100712;27;20852;-65
2022/07/02 03:03:09;;;;;;;4.47;2.63;;;;;;;;;;5103341;27;20519;-62
2022/07/02 03:05:36;;;;;;;6.18;2.95;;;;;;;;;;5102204;27;20118;-62
2022/07/02 03:08:02;;;;;;;5.78;3.17;;;;;;;;;;5102372;27;20035;-62
2022/07/02 03:10:29;;;;;;;6.85;3.67;;;;;;;;;;5100412;27;20675;-62
2022/07/02 03:12:55;;;;;;;5.38;3.15;;;;;;;;;;5101726;27;20399;-62
2022/07/02 03:15:22;;;;;;;7.60;3.15;;;;;;;;;;5101250;27;20060;-62
2022/07/02 03:17:49;;;;;;;9.48;3.25;;;;;;;;;;5102127;27;20454;-62
2022/07/02 03:20:15;;;;;;;6.22;3.10;;;;;;;;;;5102544;27;20048;-62
2022/07/02 03:22:42;;;;;;;6.07;3.05;;;;;;;;;;5101974;27;20525;-63
2022/07/02 03:25:11;;;;;;;6.32;3.17;;;;;;;;;;5092926;27;20131;-66
2022/07/02 03:27:38;;;;;;;6.13;3.20;;;;;;;;;;5096752;27;20050;-65
2022/07/02 03:30:05;;;;;;;5.45;3.03;;;;;;;;;;5104471;27;20571;-66
2022/07/02 03:32:32;;;;;;;8.25;3.35;;;;;;;;;;5071067;27;20054;-68
2022/07/02 03:34:58;;;;;;;6.95;3.20;;;;;;;;;;5069296;28;20496;-65
2022/07/02 03:37:28;;;;;;;7.53;3.83;;;;;;;;;;5069982;28;20806;-66
2022/07/02 03:39:55;;;;;;;6.30;3.40;;;;;;;;;;5069911;28;20036;-65
2022/07/02 03:42:22;;;;;;;6.35;3.20;;;;;;;;;;5068153;28;20051;-65
2022/07/02 03:44:49;;;;;;;5.50;3.03;;;;;;;;;;5068371;28;20074;-65
2022/07/02 03:47:16;;;;;;;9.00;3.53;;;;;;;;;;5069061;28;20787;-66
2022/07/02 03:49:43;;;;;;;7.30;3.63;;;;;;;;;;5069718;27;20097;-66
2022/07/02 03:52:10;;;;;;;7.03;3.83;;;;;;;;;;5106524;27;20036;-66
2022/07/02 03:54:36;;;;;;;6.22;3.80;;;;;;;;;;5093590;27;20162;-65
2022/07/02 03:57:03;;;;;;;7.10;4.03;;;;;;;;;;5099757;27;20039;-65
2022/07/02 03:59:30;;;;;;;6.05;3.60;;;;;;;;;;5105040;27;20039;-66
2022/07/02 04:01:57;;;;;;;7.00;3.97;;;;;;;;;;5102633;27;20074;-65
2022/07/02 04:04:23;;;;;;;6.80;3.90;;;;;;;;;;5103937;27;20138;-66
2022/07/02 04:06:50;;;;;;;7.55;4.05;;;;;;;;;;5104998;27;20038;-65
2022/07/02 04:09:16;;;;;;;7.82;4.00;;;;;;;;;;5105300;27;20107;-66
2022/07/02 04:11:44;;;;;;;8.52;4.07;;;;;;;;;;5104662;27;20367;-65
2022/07/02 04:14:10;;;;;;;8.13;3.92;;;;;;;;;;5105285;27;20035;-65
2022/07/02 04:16:37;;;;;;;7.10;3.67;;;;;;;;;;5105241;27;20043;-65
2022/07/02 04:19:04;;;;;;;10.88;4.32;;;;;;;;;;5105431;27;21016;-63
2022/07/02 04:21:30;;;;;;;7.20;4.05;;;;;;;;;;5104650;27;20408;-65
2022/07/02 04:23:57;;;;;;;6.43;3.88;;;;;;;;;;5103974;27;20138;-65
2022/07/02 04:26:23;;;;;;;9.73;4.32;;;;;;;;;;5104691;27;20377;-64
2022/07/02 04:28:50;;;;;;;8.38;4.38;;;;;;;;;;5103069;27;20032;-65
2022/07/02 04:31:17;;;;;;;7.35;4.35;;;;;;;;;;5106454;27;20050;-66
2022/07/02 04:34:03;;;;;;;8.65;4.28;;;;;;;;;;5039821;28;20781;-69
2022/07/02 04:36:30;;;;;;;6.85;4.15;;;;;;;;;;5018000;28;20425;-68
2022/07/02 04:38:56;;;;;;;8.68;4.35;;;;;;;;;;5038818;28;20147;-68
2022/07/02 04:41:23;;;;;;;7.85;4.07;;;;;;;;;;5043280;28;20039;-67
2022/07/02 04:43:50;;;;;;;9.00;4.43;;;;;;;;;;5031542;28;20124;-66
2022/07/02 04:46:16;;;;;;;9.60;4.78;;;;;;;;;;5045794;28;20122;-66
2022/07/02 04:48:43;;;;;;;7.97;4.85;;;;;;;;;;5047189;28;20060;-65
2022/07/02 04:51:09;;;;;;;9.85;5.90;;;;;;;;;;5032603;28;20037;-64
2022/07/02 04:53:36;;;;;;;8.77;5.15;;;;;;;;;;5040571;28;20037;-66
2022/07/02 04:56:03;;;;;;;8.95;5.72;;;;;;;;;;5046766;28;20082;-65
2022/07/02 04:58:29;;;;;;;9.75;5.20;;;;;;;;;;5047318;28;20083;-66
2022/07/02 05:00:56;;;;;;;9.30;5.72;;;;;;;;;;5052305;28;20072;-66
2022/07/02 05:03:23;;;;;;;10.35;5.82;;;;;;;;;;5046161;28;20109;-66
2022/07/02 05:05:49;;;;;;;8.90;5.40;;;;;;;;;;5047531;28;20060;-67
2022/07/02 05:08:18;;;;;;;8.13;4.70;;;;;;;;;;5047651;28;20047;-66
2022/07/02 05:10:45;;;;;;;7.57;4.60;;;;;;;;;;5056575;27;20031;-66
2022/07/02 05:13:11;;;;;;;6.10;3.80;;;;;;;;;;5102574;27;20097;-66
2022/07/02 05:15:39;;;;;;;9.43;4.95;;;;;;;;;;5103316;27;22376;-66
2022/07/02 05:18:06;;;;;;;6.80;3.92;;;;;;;;;;5105870;27;20048;-66
2022/07/02 05:20:32;;;;;;;7.10;4.57;;;;;;;;;;5106232;27;20043;-66
2022/07/02 05:22:59;;;;;;;9.52;4.13;;;;;;;;;;5104787;27;20047;-66
2022/07/02 05:25:26;;;;;;;8.18;4.38;;;;;;;;;;5102321;27;20366;-66
2022/07/02 05:27:52;;;;;;;7.70;4.40;;;;;;;;;;5102592;27;20039;-65
2022/07/02 05:30:19;;;;;;;8.88;3.55;;;;;;;;;;5106781;27;20427;-66
2022/07/02 05:32:46;;;;;;;7.30;4.03;;;;;;;;;;5106324;27;20122;-66
2022/07/02 05:35:12;;;;;;;6.53;3.30;;;;;;;;;;5103713;27;20150;-66
2022/07/02 05:37:39;;;;;;;7.32;3.45;;;;;;;;;;5103393;27;20039;-66
2022/07/02 05:40:06;;;;;;;6.40;3.00;;;;;;;;;;5105179;28;20066;-66
2022/07/02 05:42:32;;;;;;;5.70;2.88;;;;;;;;;;5103775;28;20031;-66
2022/07/02 05:44:59;;;;;;;5.32;2.63;;;;;;;;;;5104166;28;20063;-67
2022/07/02 05:47:26;;;;;;;5.53;2.95;;;;;;;;;;5104980;28;20044;-66
2022/07/02 05:49:53;;;;;;;6.20;2.72;;;;;;;;;;5105126;28;20515;-67
2022/07/02 05:52:20;;;;;;;5.75;2.67;;;;;;;;;;5104188;28;20448;-67
2022/07/02 05:54:46;;;;;;;5.45;3.10;;;;;;;;;;5089306;28;20035;-67
2022/07/02 05:57:13;;;;;;;5.30;3.05;;;;;;;;;;5096191;28;20093;-67
2022/07/02 05:59:40;;;;;;;5.00;2.67;;;;;;;;;;5105519;28;20081;-67
2022/07/02 06:02:07;;;;;;;8.95;3.08;;;;;;;;;;5103578;28;20475;-67
2022/07/02 06:04:34;;;;;;;5.88;3.08;;;;;;;;;;5104754;28;20055;-68
2022/07/02 06:09:47;;;;;;;6.75;3.33;;;;;;;;;;5106295;28;20119;-67
2022/07/02 06:12:13;;;;;;;8.02;2.92;;;;;;;;;;5104765;28;20042;-67
2022/07/02 06:14:40;;;;;;;8.80;3.08;;;;;;;;;;5102352;28;20088;-66
2022/07/02 06:17:07;;;;;;;5.35;2.67;;;;;;;;;;5103788;28;20852;-68
2022/07/02 06:19:34;;;;;;;5.95;2.97;;;;;;;;;;5102801;28;20111;-66
2022/07/02 06:22:00;;;;;;;5.43;2.80;;;;;;;;;;5103333;28;20074;-65
2022/07/02 06:24:27;;;;;;;7.50;3.40;;;;;;;;;;5101974;28;20430;-66
2022/07/02 06:26:54;;;;;;;7.43;3.35;;;;;;;;;;5103982;27;20512;-66
2022/07/02 06:29:20;;;;;;;5.68;3.03;;;;;;;;;;5102572;28;21976;-66
2022/07/02 06:31:47;;;;;;;6.95;2.90;;;;;;;;;;5085669;28;20061;-66
2022/07/02 06:34:13;;;;;;;4.43;2.45;;;;;;;;;;5087542;28;20034;-65
2022/07/02 06:36:40;;;;;;;5.93;3.15;;;;;;;;;;5066161;28;20035;-66
2022/07/02 06:39:07;;;;;;;5.40;2.95;;;;;;;;;;5106616;27;20035;-66
2022/07/02 06:44:19;;;;;;;6.05;3.10;;;;;;;;;;5105116;27;20059;-67
2022/07/02 06:46:45;;;;;;;6.22;3.40;;;;;;;;;;5104782;27;20564;-66
2022/07/02 06:49:12;;;;;;;5.70;3.28;;;;;;;;;;5107265;27;20076;-67
2022/07/02 06:51:38;;;;;;;7.32;3.38;;;;;;;;;;5104197;27;20122;-67
2022/07/02 06:54:05;;;;;;;5.53;3.10;;;;;;;;;;5106176;27;20066;-66
2022/07/02 06:56:35;;;;;;;5.95;3.13;;;;;;;;;;5107646;27;20062;-67
2022/07/02 06:59:02;;;;;;;7.95;3.38;;;;;;;;;;5105040;27;20039;-66
2022/07/02 07:01:29;;;;;;;6.70;3.28;;;;;;;;;;5105533;27;20376;-67
2022/07/02 07:03:55;;;;;;;8.35;3.42;;;;;;;;;;5107857;27;20147;-67
2022/07/02 07:06:26;;;;;;;7.03;3.25;;;;;;;;;;5106786;27;20056;-67
2022/07/02 07:08:53;;;;;;;8.35;3.58;;;;;;;;;;5107076;27;20039;-67
2022/07/02 07:11:21;;;;;;;6.70;3.67;;;;;;;;;;5105258;27;20111;-67
2022/07/02 07:13:48;;;;;;;7.07;3.20;;;;;;;;;;5105107;27;20065;-67
2022/07/02 07:16:15;;;;;;;8.68;4.60;;;;;;;;;;5106248;27;20130;-67
2022/07/02 07:18:54;;;;;;;8.90;3.65;;;;;;;;;;5106182;27;20404;-67
2022/07/02 07:21:21;;;;;;;7.63;4.13;;;;;;;;;;5106605;27;20040;-67
2022/07/02 07:23:48;;;;;;;9.18;4.28;;;;;;;;;;5104493;27;20160;-67
2022/07/02 07:26:14;;;;;;;7.40;4.22;;;;;;;;;;5106306;27;20043;-67
2022/07/02 07:28:41;;;;;;;7.32;3.95;;;;;;;;;;5087660;27;20804;-67
2022/07/02 07:31:07;;;;;;;7.18;3.88;;;;;;;;;;5091998;27;20044;-67
2022/07/02 07:33:37;;;;;;;7.60;4.25;;;;;;;;;;5086175;27;20040;-67
2022/07/02 07:36:04;;;;;;;7.03;3.70;;;;;;;;;;5092565;28;20394;-67
2022/07/02 07:38:31;;;;;;;7.40;3.80;;;;;;;;;;5091691;28;20418;-66
2022/07/02 07:40:58;;;;;;;6.75;3.67;;;;;;;;;;5095971;28;20059;-65
2022/07/02 07:43:24;;;;;;;8.35;4.18;;;;;;;;;;5090339;27;20209;-66
2022/07/02 07:45:51;;;;;;;6.97;3.85;;;;;;;;;;5088847;28;20040;-66
2022/07/02 07:48:17;;;;;;;8.48;3.67;;;;;;;;;;5089306;28;20032;-66
2022/07/02 07:50:44;;;;;;;7.38;3.80;;;;;;;;;;5090830;28;20059;-65
2022/07/02 07:53:11;;;;;;;7.13;3.50;;;;;;;;;;5092253;27;20074;-66
2022/07/02 07:55:39;;;;;;;8.55;4.20;;;;;;;;;;5087375;28;20059;-65
2022/07/02 07:58:06;;;;;;;7.25;3.60;;;;;;;;;;5089254;27;20092;-65
2022/07/02 08:00:33;;;;;;;6.45;3.60;;;;;;;;;;5087646;28;20061;-65
2022/07/02 08:03:00;;;;;;;7.82;3.97;;;;;;;;;;5087071;27;20523;-65
2022/07/02 08:05:26;;;;;;;7.95;4.40;;;;;;;;;;5087727;28;20047;-64
2022/07/02 08:07:53;;;;;;;5.80;3.85;;;;;;;;;;5089077;28;20082;-65
2022/07/02 08:10:20;;;;;;;7.45;4.13;;;;;;;;;;5086781;28;20043;-66
2022/07/02 08:12:48;;;;;;;6.97;4.10;;;;;;;;;;5082565;28;20047;-65
2022/07/02 08:15:15;;;;;;;6.25;3.97;;;;;;;;;;5086825;28;20066;-66
2022/07/02 08:17:41;;;;;;;8.65;4.45;;;;;;;;;;5087551;28;20036;-66
2022/07/02 08:20:08;;;;;;;9.55;3.80;;;;;;;;;;5086716;28;20157;-66
2022/07/02 08:22:35;;;;;;;6.90;3.80;;;;;;;;;;5085578;27;20046;-66
2022/07/02 08:25:03;;;;;;;7.80;4.10;;;;;;;;;;5085878;27;20048;-66
2022/07/02 08:27:29;;;;;;;7.32;4.10;;;;;;;;;;5086762;28;20043;-66
2022/07/02 08:29:56;;;;;;;8.00;4.45;;;;;;;;;;5094620;27;20075;-66
2022/07/02 08:32:23;;;;;;;8.25;4.50;;;;;;;;;;5106490;27;20040;-67
2022/07/02 08:34:50;;;;;;;7.88;3.95;;;;;;;;;;5085729;28;20536;-66
2022/07/02 08:37:16;;;;;;;9.10;4.18;;;;;;;;;;5086688;27;20051;-66
2022/07/02 08:39:43;;;;;;;8.40;4.50;;;;;;;;;;5101837;27;20058;-66
2022/07/02 08:42:10;;;;;;;9.32;4.55;;;;;;;;;;5067512;28;20044;-66
2022/07/02 08:44:38;;;;;;;7.70;4.15;;;;;;;;;;5084982;27;20051;-65
2022/07/02 08:47:08;;;;;;;7.30;3.85;;;;;;;;;;5086323;27;20051;-65
2022/07/02 08:49:36;;;;;;;6.18;3.45;;;;;;;;;;5085458;28;20035;-65
2022/07/02 08:52:03;;;;;;;6.88;3.58;;;;;;;;;;5085068;27;20044;-65
2022/07/02 08:54:30;;;;;;;8.63;4.10;;;;;;;;;;5060618;28;20051;-65
2022/07/02 08:56:58;;;;;;;7.72;3.90;;;;;;;;;;5082582;27;20046;-65
2022/07/02 08:59:25;;;;;;;7.38;3.97;;;;;;;;;;5083312;27;20036;-64
2022/07/02 09:01:52;;;;;;;7.25;3.55;;;;;;;;;;5082411;28;20054;-64
2022/07/02 09:04:19;;;;;;;8.20;4.35;;;;;;;;;;5082302;27;20147;-64
2022/07/02 09:06:52;;;;;;;6.40;3.42;;;;;;;;;;5082969;28;20170;-64
2022/07/02 09:09:18;;;;;;;13.57;4.13;;;;;;;;;;5084901;28;20551;-63
2022/07/02 09:11:46;;;;;;;6.65;3.60;;;;;;;;;;5081811;28;20280;-63
2022/07/02 09:14:13;;;;;;;7.43;3.53;;;;;;;;;;5083047;28;20036;-63
2022/07/02 09:16:39;;;;;;;6.80;3.88;;;;;;;;;;5084991;28;20035;-63
2022/07/02 09:19:06;;;;;;;7.57;3.95;;;;;;;;;;5093034;27;20069;-63
2022/07/02 09:21:49;;;;;;;8.30;3.67;;;;;;;;;;5104034;27;20118;-63
2022/07/02 09:24:16;;;;;;;8.38;3.58;;;;;;;;;;5103855;27;20096;-63
2022/07/02 09:26:48;;;;;;;7.70;3.53;;;;;;;;;;5091820;27;20525;-63
2022/07/02 09:29:14;;;;;;;6.05;3.08;;;;;;;;;;5098521;27;20046;-62
2022/07/02 09:31:50;;;;;;;6.95;3.78;;;;;;;;;;5104700;27;20140;-63
2022/07/02 09:34:27;;;;;;;7.70;3.55;;;;;;;;;;5103990;27;20035;-63
2022/07/02 09:36:54;;;;;;;6.55;3.65;;;;;;;;;;5105204;27;20041;-62
2022/07/02 09:39:30;;;;;;;9.52;3.92;;;;;;;;;;5104957;28;20036;-62
2022/07/02 09:41:57;;;;;;;7.93;3.90;;;;;;;;;;5105118;28;20043;-62
2022/07/02 09:44:25;;;;;;;7.82;3.70;;;;;;;;;;5103684;28;20062;-62
2022/07/02 09:46:52;;;;;;;10.48;3.80;;;;;;;;;;5105005;28;20039;-62
2022/07/02 09:49:19;;;;;;;7.15;3.85;;;;;;;;;;5079091;28;20044;-62
2022/07/02 09:51:50;;;;;;;6.80;3.47;;;;;;;;;;5084692;27;20152;-62
2022/07/02 09:54:20;;;;;;;8.68;3.88;;;;;;;;;;5083170;27;20515;-62
2022/07/02 09:56:53;;;;;;;6.50;3.63;;;;;;;;;;5083259;28;20035;-61
2022/07/02 09:59:19;;;;;;;8.77;3.70;;;;;;;;;;5084212;27;20044;-62
2022/07/02 10:01:46;;;;;;;7.82;3.70;;;;;;;;;;5103996;28;20333;-62
2022/07/02 10:04:13;;;;;;;7.60;3.85;;;;;;;;;;5101926;28;20147;-62
2022/07/02 10:06:42;;;;;;;8.75;4.13;;;;;;;;;;5106226;27;20389;-62
2022/07/02 10:09:09;;;;;;;7.40;3.78;;;;;;;;;;5107598;27;20349;-62
2022/07/02 10:11:37;;;;;;;7.10;3.97;;;;;;;;;;5090115;27;20084;-62
2022/07/02 10:14:05;;;;;;;8.05;5.00;;;;;;;;;;5105790;27;20413;-62
2022/07/02 10:16:32;;;;;;;10.25;5.78;;;;;;;;;;5108040;27;20047;-62
2022/07/02 10:18:59;;;;;;;10.25;5.10;;;;;;;;;;5108590;27;20169;-62
2022/07/02 10:21:26;;;;;;;8.32;4.47;;;;;;;;;;5105751;27;20058;-62
2022/07/02 10:23:53;;;;;;;9.43;4.50;;;;;;;;;;5106905;27;20146;-62
2022/07/02 10:26:20;;;;;;;7.85;4.30;;;;;;;;;;5108380;27;21910;-62
2022/07/02 10:28:47;;;;;;;7.07;4.00;;;;;;;;;;5106470;27;20050;-62
2022/07/02 10:31:20;;;;;;;6.78;3.92;;;;;;;;;;5106846;27;20074;-62
2022/07/02 10:34:16;;;;;;;7.10;3.95;;;;;;;;;;5106943;27;20043;-62
2022/07/02 10:36:43;;;;;;;7.55;4.20;;;;;;;;;;5089121;27;20554;-62
2022/07/02 10:39:16;;;;;;;7.47;3.88;;;;;;;;;;5106412;27;20039;-62
2022/07/02 10:41:42;;;;;;;5.90;3.63;;;;;;;;;;5106145;27;20048;-62
2022/07/02 10:44:10;;;;;;;6.85;3.80;;;;;;;;;;5079005;28;20882;-62
2022/07/02 10:46:37;;;;;;;9.07;4.40;;;;;;;;;;5084749;28;20059;-62
2022/07/02 10:49:05;;;;;;;8.60;4.15;;;;;;;;;;5085333;27;20047;-63
2022/07/02 10:51:35;;;;;;;6.15;3.58;;;;;;;;;;5083649;28;20101;-61
2022/07/02 10:54:04;;;;;;;7.68;4.20;;;;;;;;;;5083770;27;20531;-62
2022/07/02 10:56:31;;;;;;;7.53;3.88;;;;;;;;;;5084766;27;20471;-62
2022/07/02 10:58:58;;;;;;;8.73;4.00;;;;;;;;;;5085527;27;20063;-62
2022/07/02 11:01:25;;;;;;;7.57;4.20;;;;;;;;;;5084930;27;20132;-62
2022/07/02 11:03:56;;;;;;;8.02;4.22;;;;;;;;;;5084543;27;20074;-62
2022/07/02 11:06:22;;;;;;;9.23;4.22;;;;;;;;;;5083763;27;20441;-62
2022/07/02 11:08:50;;;;;;;8.88;4.60;;;;;;;;;;5085588;27;20080;-62
2022/07/02 11:11:19;;;;;;;7.90;4.72;;;;;;;;;;5086096;28;20717;-62
2022/07/02 11:13:48;;;;;;;8.90;4.28;;;;;;;;;;5104150;27;20035;-62
2022/07/02 11:16:19;;;;;;;6.82;3.80;;;;;;;;;;5104632;27;20142;-63
2022/07/02 11:18:46;;;;;;;8.25;3.95;;;;;;;;;;5102945;27;20882;-63
2022/07/02 11:21:13;;;;;;;7.55;3.90;;;;;;;;;;5104204;27;20494;-62
2022/07/02 11:23:40;;;;;;;7.30;4.20;;;;;;;;;;5065019;27;20115;-63
2022/07/02 11:26:10;;;;;;;7.72;3.95;;;;;;;;;;5098370;27;20047;-68
2022/07/02 11:28:37;;;;;;;7.07;4.07;;;;;;;;;;5108037;27;20126;-69
2022/07/02 11:31:04;;;;;;;6.97;4.00;;;;;;;;;;5109038;27;20054;-67
2022/07/02 11:33:32;;;;;;;6.97;3.72;;;;;;;;;;5106090;27;20043;-67
2022/07/02 11:35:59;;;;;;;7.90;4.13;;;;;;;;;;5108557;27;20088;-67
2022/07/02 11:38:25;;;;;;;7.47;4.15;;;;;;;;;;5106359;27;20039;-67
2022/07/02 11:40:52;;;;;;;7.13;4.20;;;;;;;;;;5105721;27;20038;-67
2022/07/02 11:43:20;;;;;;;10.25;5.13;;;;;;;;;;5104276;27;20415;-68
2022/07/02 11:45:48;;;;;;;9.82;6.10;;;;;;;;;;5092954;27;20824;-67
2022/07/02 11:48:21;;;;;;;10.85;6.38;;;;;;;;;;5085215;27;20042;-68
2022/07/02 11:50:57;;;;;;;11.32;6.57;;;;;;;;;;5085708;27;20039;-68
2022/07/02 11:53:24;;;;;;;10.32;6.30;;;;;;;;;;5085162;27;20046;-67
2022/07/02 11:55:51;;;;;;;9.82;6.50;;;;;;;;;;5087177;28;20067;-66
2022/07/02 11:58:18;;;;;;;11.93;6.65;;;;;;;;;;5085554;28;20060;-66
2022/07/02 12:00:45;;;;;;;10.80;6.53;;;;;;;;;;5086899;28;20157;-66
2022/07/02 12:03:13;;;;;;;11.40;6.80;;;;;;;;;;5087099;28;20066;-66
2022/07/02 12:05:54;;;;;;;11.05;6.70;;;;;;;;;;5085119;28;20122;-67
2022/07/02 12:08:21;;;;;;;10.77;6.50;;;;;;;;;;5085383;28;20113;-67
2022/07/02 12:10:47;;;;;;;12.55;6.50;;;;;;;;;;5085777;28;20059;-67
2022/07/02 12:13:14;;;;;;;11.20;6.53;;;;;;;;;;5088006;27;20039;-67
2022/07/02 12:15:43;;;;;;;12.73;6.72;;;;;;;;;;5086585;28;20047;-67
2022/07/02 12:18:21;;;;;;;13.02;6.88;;;;;;;;;;5088762;28;20878;-67
2022/07/02 12:20:47;;;;;;;12.40;6.53;;;;;;;;;;5084789;28;20085;-68
2022/07/02 12:23:14;;;;;;;12.75;6.43;;;;;;;;;;5086516;28;20074;-67
2022/07/02 12:25:59;;;;;;;12.02;7.68;;;;;;;;;;5085476;28;20535;-67
2022/07/02 12:31:15;;;;;;;13.75;6.95;;;;;;;;;;5065269;28;20047;-67
2022/07/02 12:33:42;;;;;;;11.80;7.00;;;;;;;;;;5085696;28;20097;-67
2022/07/02 12:36:08;;;;;;;10.02;6.40;;;;;;;;;;5086531;28;20059;-67
2022/07/02 12:38:45;;;;;;;11.32;7.38;;;;;;;;;;5083488;27;20519;-67
2022/07/02 12:41:12;;;;;;;14.48;6.88;;;;;;;;;;5084298;28;20040;-67
2022/07/02 12:43:39;;;;;;;13.55;7.03;;;;;;;;;;5082735;28;20079;-67
2022/07/02 12:46:06;;;;;;;10.70;7.47;;;;;;;;;;5086258;28;20035;-66
2022/07/02 12:48:42;;;;;;;12.52;7.78;;;;;;;;;;5085635;27;20607;-67
2022/07/02 12:51:10;;;;;;;12.38;7.30;;;;;;;;;;5086025;27;20572;-66
2022/07/02 12:53:36;;;;;;;12.55;7.85;;;;;;;;;;5085252;28;21794;-67
2022/07/02 12:56:04;;;;;;;12.07;8.20;;;;;;;;;;5084041;28;20039;-67
2022/07/02 12:58:31;;;;;;;13.50;8.52;;;;;;;;;;5087022;28;20550;-66
2022/07/02 13:00:58;;;;;;;12.48;7.63;;;;;;;;;;5085448;28;20147;-67
2022/07/02 13:03:25;;;;;;;12.85;8.32;;;;;;;;;;5083014;28;20076;-68
2022/07/02 13:05:53;;;;;;;15.13;9.13;;;;;;;;;;5084240;27;20535;-67
2022/07/02 13:08:21;;;;;;;13.70;8.63;;;;;;;;;;5083459;28;20047;-67
2022/07/02 13:10:49;;;;;;;14.02;8.88;;;;;;;;;;5082779;28;20061;-67
2022/07/02 13:13:16;;;;;;;12.43;8.20;;;;;;;;;;5083049;28;20044;-67
2022/07/02 13:15:43;;;;;;;16.50;9.27;;;;;;;;;;5084986;28;20119;-68
2022/07/02 13:18:10;;;;;;;18.23;10.57;;;;;;;;;;5082877;28;20552;-68
2022/07/02 13:20:37;;;;;;;15.50;9.70;;;;;;;;;;5084103;28;20047;-68
2022/07/02 13:23:04;;;;;;;15.77;9.50;;;;;;;;;;5083412;28;20047;-68
2022/07/02 13:25:30;;;;;;;15.85;10.88;;;;;;;;;;5083677;28;20040;-68
2022/07/02 13:27:57;;;;;;;15.15;9.80;;;;;;;;;;5083242;28;20059;-68
2022/07/02 13:30:24;;;;;;;16.35;10.85;;;;;;;;;;5093817;27;20138;-67
2022/07/02 13:32:50;;;;;;;19.45;11.13;;;;;;;;;;5103035;27;20043;-68
2022/07/02 13:35:17;;;;;;;19.75;12.20;;;;;;;;;;5103373;27;20032;-67
2022/07/02 13:37:44;;;;;;;19.95;11.93;;;;;;;;;;5102799;27;20109;-67
2022/07/02 13:40:12;;;;;;;19.23;12.45;;;;;;;;;;5103898;27;20596;-68
2022/07/02 13:42:39;;;;;;;19.80;12.68;;;;;;;;;;5084651;28;20150;-67
2022/07/02 13:45:07;;;;;;;19.73;11.55;;;;;;;;;;5103394;28;20060;-67
2022/07/02 13:47:33;;;;;;;18.95;12.00;;;;;;;;;;5102284;28;20756;-67
2022/07/02 13:50:00;;;;;;;20.20;11.63;;;;;;;;;;5103802;28;20039;-67
2022/07/02 13:52:26;;;;;;;18.85;12.27;;;;;;;;;;5101045;28;20078;-67
2022/07/02 13:54:53;;;;;;;18.67;13.02;;;;;;;;;;5103684;28;20046;-66
2022/07/02 13:57:20;;;;;;;19.02;12.32;;;;;;;;;;5071011;28;20085;-68
2022/07/02 13:59:47;;;;;;;16.92;12.05;;;;;;;;;;5083302;28;20039;-65
2022/07/02 14:02:13;;;;;;;16.60;10.55;;;;;;;;;;5101132;28;20081;-64
2022/07/02 14:04:40;;;;;;;15.05;10.57;;;;;;;;;;5102804;28;20389;-65
2022/07/02 14:07:07;;;;;;;17.02;11.43;;;;;;;;;;5103222;28;20745;-65
2022/07/02 14:09:35;;;;;;;14.10;9.25;;;;;;;;;;5102595;28;20376;-65
2022/07/02 14:12:06;;;;;;;16.10;9.52;;;;;;;;;;5103667;28;20425;-66
2022/07/02 14:14:33;;;;;;;14.07;9.23;;;;;;;;;;5104623;28;20046;-65
2022/07/02 14:17:00;;;;;;;15.57;9.32;;;;;;;;;;5105760;28;20563;-65
2022/07/02 14:19:26;;;;;;;15.30;9.27;;;;;;;;;;5101329;28;20071;-65
2022/07/02 14:21:53;;;;;;;14.32;8.77;;;;;;;;;;5099906;28;20481;-66
2022/07/02 14:24:20;;;;;;;13.65;8.27;;;;;;;;;;5102811;28;20189;-66
2022/07/02 14:26:46;;;;;;;11.07;7.38;;;;;;;;;;5084198;28;20042;-66
2022/07/02 14:29:13;;;;;;;11.70;7.90;;;;;;;;;;5104752;28;20039;-66
2022/07/02 14:31:39;;;;;;;12.85;7.53;;;;;;;;;;5103232;28;20047;-66
2022/07/02 14:34:07;;;;;;;12.10;7.03;;;;;;;;;;5104856;28;20043;-66
2022/07/02 14:36:33;;;;;;;12.07;7.35;;;;;;;;;;5102997;28;20398;-66
2022/07/02 14:39:00;;;;;;;10.18;7.32;;;;;;;;;;5103608;28;20047;-67
2022/07/02 14:41:33;;;;;;;11.70;7.15;;;;;;;;;;5101397;28;20040;-67
2022/07/02 14:44:00;;;;;;;12.27;7.78;;;;;;;;;;5084970;28;20048;-69
2022/07/02 14:46:30;;;;;;;11.60;7.22;;;;;;;;;;5102645;28;20031;-69
2022/07/02 14:48:58;;;;;;;11.40;7.18;;;;;;;;;;5104349;27;20546;-69